sensor_id;sensor_type;location;lat;lon;timestamp;P1;durP1;ratioP1;P2;durP2;ratioP2
22794;SDS011;11564;50.920;11.612;2023-05-28T00:02:24;3.83;;;2.90;;
22794;SDS011;11564;50.920;11.612;2023-05-28T00:04:50;4.00;;;3.20;;
22794;SDS011;11564;50.920;11.612;2023-05-28T00:07:16;12.87;;;3.80;;
22794;SDS011;11564;50.920;11.612;2023-05-28T00:09:41;4.10;;;3.40;;
22794;SDS011;11564;50.920;11.612;2023-05-28T00:12:07;3.83;;;3.13;;
22794;SDS011;11564;50.920;11.612;2023-05-28T00:14:33;4.97;;;3.23;;
22794;SDS011;11564;50.920;11.612;2023-05-28T00:17:00;4.20;;;2.97;;
22794;SDS011;11564;50.920;11.612;2023-05-28T00:19:25;8.97;;;3.13;;
22794;SDS011;11564;50.920;11.612;2023-05-28T00:21:51;7.07;;;3.43;;
22794;SDS011;11564;50.920;11.612;2023-05-28T00:24:16;15.70;;;4.20;;
22794;SDS011;11564;50.920;11.612;2023-05-28T00:26:42;8.63;;;4.50;;
22794;SDS011;11564;50.920;11.612;2023-05-28T00:29:08;9.60;;;5.47;;
22794;SDS011;11564;50.920;11.612;2023-05-28T00:31:34;6.97;;;4.50;;
22794;SDS011;11564;50.920;11.612;2023-05-28T00:33:59;8.20;;;6.00;;
22794;SDS011;11564;50.920;11.612;2023-05-28T00:36:26;4.80;;;4.10;;
22794;SDS011;11564;50.920;11.612;2023-05-28T00:38:51;10.73;;;4.20;;
22794;SDS011;11564;50.920;11.612;2023-05-28T00:41:20;7.40;;;4.17;;
22794;SDS011;11564;50.920;11.612;2023-05-28T00:43:50;6.50;;;4.63;;
22794;SDS011;11564;50.920;11.612;2023-05-28T00:46:17;6.10;;;4.00;;
22794;SDS011;11564;50.920;11.612;2023-05-28T00:48:44;4.80;;;3.87;;
22794;SDS011;11564;50.920;11.612;2023-05-28T00:51:11;4.60;;;3.17;;
22794;SDS011;11564;50.920;11.612;2023-05-28T00:53:37;9.40;;;3.90;;
22794;SDS011;11564;50.920;11.612;2023-05-28T00:56:05;6.60;;;3.67;;
22794;SDS011;11564;50.920;11.612;2023-05-28T00:58:31;8.80;;;4.27;;
22794;SDS011;11564;50.920;11.612;2023-05-28T01:01:00;4.33;;;3.77;;
22794;SDS011;11564;50.920;11.612;2023-05-28T01:03:26;4.00;;;3.20;;
22794;SDS011;11564;50.920;11.612;2023-05-28T01:05:51;4.47;;;3.40;;
22794;SDS011;11564;50.920;11.612;2023-05-28T01:08:17;8.80;;;4.43;;
22794;SDS011;11564;50.920;11.612;2023-05-28T01:10:43;3.97;;;3.57;;
22794;SDS011;11564;50.920;11.612;2023-05-28T01:13:10;4.13;;;3.30;;
22794;SDS011;11564;50.920;11.612;2023-05-28T01:15:37;7.60;;;4.10;;
22794;SDS011;11564;50.920;11.612;2023-05-28T01:18:03;5.87;;;3.80;;
22794;SDS011;11564;50.920;11.612;2023-05-28T01:20:30;4.83;;;3.53;;
22794;SDS011;11564;50.920;11.612;2023-05-28T01:23:00;4.40;;;3.40;;
22794;SDS011;11564;50.920;11.612;2023-05-28T01:25:30;3.70;;;3.40;;
22794;SDS011;11564;50.920;11.612;2023-05-28T01:27:56;4.90;;;3.10;;
22794;SDS011;11564;50.920;11.612;2023-05-28T01:30:27;5.40;;;3.30;;
22794;SDS011;11564;50.920;11.612;2023-05-28T01:32:53;5.03;;;2.80;;
22794;SDS011;11564;50.920;11.612;2023-05-28T01:35:18;3.97;;;3.17;;
22794;SDS011;11564;50.920;11.612;2023-05-28T01:37:49;4.20;;;2.63;;
22794;SDS011;11564;50.920;11.612;2023-05-28T01:40:17;5.27;;;3.20;;
22794;SDS011;11564;50.920;11.612;2023-05-28T01:42:43;6.50;;;3.70;;
22794;SDS011;11564;50.920;11.612;2023-05-28T01:45:11;3.73;;;3.17;;
22794;SDS011;11564;50.920;11.612;2023-05-28T01:47:38;6.43;;;3.23;;
22794;SDS011;11564;50.920;11.612;2023-05-28T01:50:04;5.53;;;4.00;;
22794;SDS011;11564;50.920;11.612;2023-05-28T01:52:30;7.23;;;4.00;;
22794;SDS011;11564;50.920;11.612;2023-05-28T01:54:56;5.43;;;4.17;;
22794;SDS011;11564;50.920;11.612;2023-05-28T01:57:22;8.53;;;3.93;;
22794;SDS011;11564;50.920;11.612;2023-05-28T01:59:48;6.40;;;4.43;;
22794;SDS011;11564;50.920;11.612;2023-05-28T02:02:13;8.00;;;5.10;;
22794;SDS011;11564;50.920;11.612;2023-05-28T02:04:39;5.53;;;5.00;;
22794;SDS011;11564;50.920;11.612;2023-05-28T02:07:04;7.20;;;5.13;;
22794;SDS011;11564;50.920;11.612;2023-05-28T02:09:30;10.40;;;5.17;;
22794;SDS011;11564;50.920;11.612;2023-05-28T02:11:56;8.30;;;4.90;;
22794;SDS011;11564;50.920;11.612;2023-05-28T02:14:24;6.23;;;4.87;;
22794;SDS011;11564;50.920;11.612;2023-05-28T02:16:49;9.73;;;5.50;;
22794;SDS011;11564;50.920;11.612;2023-05-28T02:19:17;6.70;;;4.23;;
22794;SDS011;11564;50.920;11.612;2023-05-28T02:21:43;7.90;;;4.50;;
22794;SDS011;11564;50.920;11.612;2023-05-28T02:24:09;8.07;;;5.03;;
22794;SDS011;11564;50.920;11.612;2023-05-28T02:26:35;6.70;;;4.50;;
22794;SDS011;11564;50.920;11.612;2023-05-28T02:29:01;8.77;;;4.73;;
22794;SDS011;11564;50.920;11.612;2023-05-28T02:31:27;15.53;;;5.20;;
22794;SDS011;11564;50.920;11.612;2023-05-28T02:33:53;5.53;;;3.80;;
22794;SDS011;11564;50.920;11.612;2023-05-28T02:36:18;6.07;;;4.10;;
22794;SDS011;11564;50.920;11.612;2023-05-28T02:38:45;4.67;;;4.17;;
22794;SDS011;11564;50.920;11.612;2023-05-28T02:41:11;5.43;;;3.97;;
22794;SDS011;11564;50.920;11.612;2023-05-28T02:43:37;4.03;;;3.63;;
22794;SDS011;11564;50.920;11.612;2023-05-28T02:46:02;5.87;;;3.83;;
22794;SDS011;11564;50.920;11.612;2023-05-28T02:48:28;4.27;;;3.87;;
22794;SDS011;11564;50.920;11.612;2023-05-28T02:50:54;5.33;;;4.30;;
22794;SDS011;11564;50.920;11.612;2023-05-28T02:53:20;3.50;;;3.03;;
22794;SDS011;11564;50.920;11.612;2023-05-28T02:55:47;4.50;;;3.70;;
22794;SDS011;11564;50.920;11.612;2023-05-28T02:58:13;5.80;;;3.97;;
22794;SDS011;11564;50.920;11.612;2023-05-28T03:00:39;9.00;;;4.60;;
22794;SDS011;11564;50.920;11.612;2023-05-28T03:03:05;6.90;;;4.20;;
22794;SDS011;11564;50.920;11.612;2023-05-28T03:05:31;8.63;;;4.47;;
22794;SDS011;11564;50.920;11.612;2023-05-28T03:08:00;3.60;;;3.30;;
22794;SDS011;11564;50.920;11.612;2023-05-28T03:10:26;3.93;;;3.57;;
22794;SDS011;11564;50.920;11.612;2023-05-28T03:12:52;12.67;;;4.10;;
22794;SDS011;11564;50.920;11.612;2023-05-28T03:15:17;4.40;;;3.90;;
22794;SDS011;11564;50.920;11.612;2023-05-28T03:17:43;4.60;;;3.80;;
22794;SDS011;11564;50.920;11.612;2023-05-28T03:20:09;8.83;;;4.30;;
22794;SDS011;11564;50.920;11.612;2023-05-28T03:22:36;7.70;;;4.07;;
22794;SDS011;11564;50.920;11.612;2023-05-28T03:25:04;8.93;;;4.20;;
22794;SDS011;11564;50.920;11.612;2023-05-28T03:27:33;3.67;;;3.27;;
22794;SDS011;11564;50.920;11.612;2023-05-28T03:29:59;5.27;;;3.77;;
22794;SDS011;11564;50.920;11.612;2023-05-28T03:32:24;5.20;;;4.07;;
22794;SDS011;11564;50.920;11.612;2023-05-28T03:34:50;6.03;;;3.33;;
22794;SDS011;11564;50.920;11.612;2023-05-28T03:37:15;5.63;;;3.93;;
22794;SDS011;11564;50.920;11.612;2023-05-28T03:39:41;6.53;;;3.50;;
22794;SDS011;11564;50.920;11.612;2023-05-28T03:42:07;5.90;;;3.40;;
22794;SDS011;11564;50.920;11.612;2023-05-28T03:44:33;3.77;;;3.37;;
22794;SDS011;11564;50.920;11.612;2023-05-28T03:46:59;6.87;;;4.00;;
22794;SDS011;11564;50.920;11.612;2023-05-28T03:49:25;6.37;;;3.73;;
22794;SDS011;11564;50.920;11.612;2023-05-28T03:51:51;3.67;;;3.37;;
22794;SDS011;11564;50.920;11.612;2023-05-28T03:54:17;9.83;;;4.10;;
22794;SDS011;11564;50.920;11.612;2023-05-28T03:56:43;4.43;;;3.63;;
22794;SDS011;11564;50.920;11.612;2023-05-28T03:59:08;7.87;;;4.10;;
22794;SDS011;11564;50.920;11.612;2023-05-28T04:01:34;8.30;;;3.90;;
22794;SDS011;11564;50.920;11.612;2023-05-28T04:04:01;8.40;;;3.70;;
22794;SDS011;11564;50.920;11.612;2023-05-28T04:06:27;5.00;;;4.00;;
22794;SDS011;11564;50.920;11.612;2023-05-28T04:08:53;7.53;;;4.03;;
22794;SDS011;11564;50.920;11.612;2023-05-28T04:11:19;6.80;;;4.07;;
22794;SDS011;11564;50.920;11.612;2023-05-28T04:13:46;3.60;;;3.30;;
22794;SDS011;11564;50.920;11.612;2023-05-28T04:16:13;3.70;;;3.40;;
22794;SDS011;11564;50.920;11.612;2023-05-28T04:18:38;5.03;;;4.33;;
22794;SDS011;11564;50.920;11.612;2023-05-28T04:21:04;7.77;;;4.90;;
22794;SDS011;11564;50.920;11.612;2023-05-28T04:23:31;8.73;;;4.03;;
22794;SDS011;11564;50.920;11.612;2023-05-28T04:25:57;4.23;;;3.80;;
22794;SDS011;11564;50.920;11.612;2023-05-28T04:28:23;5.73;;;3.60;;
22794;SDS011;11564;50.920;11.612;2023-05-28T04:30:52;4.50;;;4.10;;
22794;SDS011;11564;50.920;11.612;2023-05-28T04:33:25;6.93;;;3.70;;
22794;SDS011;11564;50.920;11.612;2023-05-28T04:35:53;5.70;;;3.93;;
22794;SDS011;11564;50.920;11.612;2023-05-28T04:38:23;5.80;;;4.00;;
22794;SDS011;11564;50.920;11.612;2023-05-28T04:40:49;4.37;;;3.97;;
22794;SDS011;11564;50.920;11.612;2023-05-28T04:43:15;7.43;;;3.90;;
22794;SDS011;11564;50.920;11.612;2023-05-28T04:45:41;13.20;;;4.33;;
22794;SDS011;11564;50.920;11.612;2023-05-28T04:48:08;6.40;;;5.10;;
22794;SDS011;11564;50.920;11.612;2023-05-28T04:50:33;8.30;;;4.10;;
22794;SDS011;11564;50.920;11.612;2023-05-28T04:53:00;5.50;;;3.60;;
22794;SDS011;11564;50.920;11.612;2023-05-28T04:55:25;6.47;;;4.50;;
22794;SDS011;11564;50.920;11.612;2023-05-28T04:57:51;8.53;;;4.57;;
22794;SDS011;11564;50.920;11.612;2023-05-28T05:00:17;5.63;;;4.00;;
22794;SDS011;11564;50.920;11.612;2023-05-28T05:02:44;4.63;;;4.20;;
22794;SDS011;11564;50.920;11.612;2023-05-28T05:05:09;7.17;;;5.27;;
22794;SDS011;11564;50.920;11.612;2023-05-28T05:07:36;8.13;;;4.83;;
22794;SDS011;11564;50.920;11.612;2023-05-28T05:10:06;12.10;;;5.37;;
22794;SDS011;11564;50.920;11.612;2023-05-28T05:12:35;6.23;;;5.30;;
22794;SDS011;11564;50.920;11.612;2023-05-28T05:15:01;9.00;;;5.57;;
22794;SDS011;11564;50.920;11.612;2023-05-28T05:17:28;10.13;;;5.33;;
22794;SDS011;11564;50.920;11.612;2023-05-28T05:19:53;9.23;;;6.10;;
22794;SDS011;11564;50.920;11.612;2023-05-28T05:22:20;11.53;;;4.77;;
22794;SDS011;11564;50.920;11.612;2023-05-28T05:24:46;9.70;;;6.07;;
22794;SDS011;11564;50.920;11.612;2023-05-28T05:27:15;8.40;;;5.67;;
22794;SDS011;11564;50.920;11.612;2023-05-28T05:29:41;7.40;;;5.60;;
22794;SDS011;11564;50.920;11.612;2023-05-28T05:32:08;7.70;;;5.37;;
22794;SDS011;11564;50.920;11.612;2023-05-28T05:34:34;7.93;;;5.00;;
22794;SDS011;11564;50.920;11.612;2023-05-28T05:37:00;10.83;;;5.27;;
22794;SDS011;11564;50.920;11.612;2023-05-28T05:39:26;11.53;;;5.57;;
22794;SDS011;11564;50.920;11.612;2023-05-28T05:41:52;10.33;;;5.70;;
22794;SDS011;11564;50.920;11.612;2023-05-28T05:44:18;7.83;;;4.63;;
22794;SDS011;11564;50.920;11.612;2023-05-28T05:46:43;8.00;;;5.37;;
22794;SDS011;11564;50.920;11.612;2023-05-28T05:49:09;7.40;;;4.77;;
22794;SDS011;11564;50.920;11.612;2023-05-28T05:51:35;6.93;;;4.93;;
22794;SDS011;11564;50.920;11.612;2023-05-28T05:54:01;9.10;;;5.40;;
22794;SDS011;11564;50.920;11.612;2023-05-28T05:56:27;5.13;;;4.63;;
22794;SDS011;11564;50.920;11.612;2023-05-28T05:58:53;8.10;;;5.20;;
22794;SDS011;11564;50.920;11.612;2023-05-28T06:01:19;5.27;;;4.87;;
22794;SDS011;11564;50.920;11.612;2023-05-28T06:03:45;5.80;;;4.87;;
22794;SDS011;11564;50.920;11.612;2023-05-28T06:06:11;8.73;;;5.90;;
22794;SDS011;11564;50.920;11.612;2023-05-28T06:08:37;4.70;;;4.07;;
22794;SDS011;11564;50.920;11.612;2023-05-28T06:11:04;7.60;;;4.70;;
22794;SDS011;11564;50.920;11.612;2023-05-28T06:13:30;9.13;;;4.60;;
22794;SDS011;11564;50.920;11.612;2023-05-28T06:15:56;9.50;;;4.80;;
22794;SDS011;11564;50.920;11.612;2023-05-28T06:18:22;11.20;;;4.90;;
22794;SDS011;11564;50.920;11.612;2023-05-28T06:20:49;7.20;;;4.00;;
22794;SDS011;11564;50.920;11.612;2023-05-28T06:23:15;6.97;;;4.73;;
22794;SDS011;11564;50.920;11.612;2023-05-28T06:25:41;7.50;;;4.80;;
22794;SDS011;11564;50.920;11.612;2023-05-28T06:28:09;7.53;;;4.73;;
22794;SDS011;11564;50.920;11.612;2023-05-28T06:30:35;6.00;;;3.90;;
22794;SDS011;11564;50.920;11.612;2023-05-28T06:33:01;11.50;;;4.77;;
22794;SDS011;11564;50.920;11.612;2023-05-28T06:35:27;10.90;;;6.13;;
22794;SDS011;11564;50.920;11.612;2023-05-28T06:37:52;6.20;;;3.90;;
22794;SDS011;11564;50.920;11.612;2023-05-28T06:40:18;5.93;;;5.20;;
22794;SDS011;11564;50.920;11.612;2023-05-28T06:42:44;9.33;;;5.27;;
22794;SDS011;11564;50.920;11.612;2023-05-28T06:45:10;15.50;;;7.00;;
22794;SDS011;11564;50.920;11.612;2023-05-28T06:47:36;7.47;;;4.40;;
22794;SDS011;11564;50.920;11.612;2023-05-28T06:50:02;6.87;;;4.73;;
22794;SDS011;11564;50.920;11.612;2023-05-28T06:52:28;6.53;;;4.17;;
22794;SDS011;11564;50.920;11.612;2023-05-28T06:54:54;5.87;;;4.73;;
22794;SDS011;11564;50.920;11.612;2023-05-28T06:57:20;14.70;;;5.93;;
22794;SDS011;11564;50.920;11.612;2023-05-28T06:59:46;7.20;;;4.53;;
22794;SDS011;11564;50.920;11.612;2023-05-28T07:02:11;5.13;;;4.33;;
22794;SDS011;11564;50.920;11.612;2023-05-28T07:04:37;5.33;;;4.53;;
22794;SDS011;11564;50.920;11.612;2023-05-28T07:07:03;7.40;;;4.60;;
22794;SDS011;11564;50.920;11.612;2023-05-28T07:09:29;7.60;;;5.07;;
22794;SDS011;11564;50.920;11.612;2023-05-28T07:11:55;9.57;;;4.97;;
22794;SDS011;11564;50.920;11.612;2023-05-28T07:14:21;7.63;;;4.80;;
22794;SDS011;11564;50.920;11.612;2023-05-28T07:16:47;15.80;;;4.50;;
22794;SDS011;11564;50.920;11.612;2023-05-28T07:19:13;15.00;;;4.63;;
22794;SDS011;11564;50.920;11.612;2023-05-28T07:21:39;7.70;;;4.67;;
22794;SDS011;11564;50.920;11.612;2023-05-28T07:24:05;10.80;;;4.20;;
22794;SDS011;11564;50.920;11.612;2023-05-28T07:26:31;5.93;;;4.00;;
22794;SDS011;11564;50.920;11.612;2023-05-28T07:28:57;6.10;;;4.17;;
22794;SDS011;11564;50.920;11.612;2023-05-28T07:31:23;6.60;;;4.90;;
22794;SDS011;11564;50.920;11.612;2023-05-28T07:33:49;8.93;;;4.37;;
22794;SDS011;11564;50.920;11.612;2023-05-28T07:36:15;5.60;;;4.33;;
22794;SDS011;11564;50.920;11.612;2023-05-28T07:38:41;7.77;;;4.20;;
22794;SDS011;11564;50.920;11.612;2023-05-28T07:41:08;9.80;;;4.30;;
22794;SDS011;11564;50.920;11.612;2023-05-28T07:43:33;8.03;;;4.27;;
22794;SDS011;11564;50.920;11.612;2023-05-28T07:45:59;5.63;;;4.07;;
22794;SDS011;11564;50.920;11.612;2023-05-28T07:48:25;4.60;;;3.77;;
22794;SDS011;11564;50.920;11.612;2023-05-28T07:50:50;7.37;;;4.17;;
22794;SDS011;11564;50.920;11.612;2023-05-28T07:53:16;7.77;;;4.03;;
22794;SDS011;11564;50.920;11.612;2023-05-28T07:55:42;8.07;;;4.43;;
22794;SDS011;11564;50.920;11.612;2023-05-28T07:58:08;4.83;;;4.10;;
22794;SDS011;11564;50.920;11.612;2023-05-28T08:00:36;8.27;;;3.87;;
22794;SDS011;11564;50.920;11.612;2023-05-28T08:03:02;7.53;;;3.93;;
22794;SDS011;11564;50.920;11.612;2023-05-28T08:05:28;11.70;;;4.10;;
22794;SDS011;11564;50.920;11.612;2023-05-28T08:07:54;11.90;;;4.50;;
22794;SDS011;11564;50.920;11.612;2023-05-28T08:10:20;13.63;;;4.30;;
22794;SDS011;11564;50.920;11.612;2023-05-28T08:12:45;9.30;;;4.33;;
22794;SDS011;11564;50.920;11.612;2023-05-28T08:15:11;9.57;;;4.23;;
22794;SDS011;11564;50.920;11.612;2023-05-28T08:17:37;9.90;;;4.93;;
22794;SDS011;11564;50.920;11.612;2023-05-28T08:20:02;12.10;;;3.83;;
22794;SDS011;11564;50.920;11.612;2023-05-28T08:22:28;8.17;;;4.60;;
22794;SDS011;11564;50.920;11.612;2023-05-28T08:24:54;9.77;;;4.10;;
22794;SDS011;11564;50.920;11.612;2023-05-28T08:27:20;5.87;;;3.33;;
22794;SDS011;11564;50.920;11.612;2023-05-28T08:29:46;6.37;;;3.50;;
22794;SDS011;11564;50.920;11.612;2023-05-28T08:32:11;8.77;;;4.47;;
22794;SDS011;11564;50.920;11.612;2023-05-28T08:34:37;15.83;;;4.70;;
22794;SDS011;11564;50.920;11.612;2023-05-28T08:37:03;8.03;;;3.83;;
22794;SDS011;11564;50.920;11.612;2023-05-28T08:39:29;9.07;;;3.53;;
22794;SDS011;11564;50.920;11.612;2023-05-28T08:41:56;6.87;;;3.20;;
22794;SDS011;11564;50.920;11.612;2023-05-28T08:44:21;11.33;;;3.87;;
22794;SDS011;11564;50.920;11.612;2023-05-28T08:46:47;13.27;;;4.10;;
22794;SDS011;11564;50.920;11.612;2023-05-28T08:49:16;8.00;;;3.40;;
22794;SDS011;11564;50.920;11.612;2023-05-28T08:51:43;7.40;;;3.33;;
22794;SDS011;11564;50.920;11.612;2023-05-28T08:54:14;12.17;;;3.40;;
22794;SDS011;11564;50.920;11.612;2023-05-28T08:56:40;8.63;;;3.73;;
22794;SDS011;11564;50.920;11.612;2023-05-28T08:59:06;6.90;;;3.20;;
22794;SDS011;11564;50.920;11.612;2023-05-28T09:01:35;4.23;;;3.03;;
22794;SDS011;11564;50.920;11.612;2023-05-28T09:04:02;4.70;;;2.60;;
22794;SDS011;11564;50.920;11.612;2023-05-28T09:06:31;2.70;;;2.33;;
22794;SDS011;11564;50.920;11.612;2023-05-28T09:08:57;4.53;;;2.80;;
22794;SDS011;11564;50.920;11.612;2023-05-28T09:11:23;6.60;;;2.53;;
22794;SDS011;11564;50.920;11.612;2023-05-28T09:13:48;6.30;;;3.27;;
22794;SDS011;11564;50.920;11.612;2023-05-28T09:16:21;4.50;;;2.70;;
22794;SDS011;11564;50.920;11.612;2023-05-28T09:18:51;4.13;;;2.40;;
22794;SDS011;11564;50.920;11.612;2023-05-28T09:21:27;4.30;;;3.17;;
22794;SDS011;11564;50.920;11.612;2023-05-28T09:23:53;4.17;;;2.30;;
22794;SDS011;11564;50.920;11.612;2023-05-28T09:26:18;6.00;;;2.90;;
22794;SDS011;11564;50.920;11.612;2023-05-28T09:28:44;7.17;;;3.37;;
22794;SDS011;11564;50.920;11.612;2023-05-28T09:31:10;5.67;;;3.13;;
22794;SDS011;11564;50.920;11.612;2023-05-28T09:33:45;6.70;;;3.50;;
22794;SDS011;11564;50.920;11.612;2023-05-28T09:36:11;4.33;;;2.97;;
22794;SDS011;11564;50.920;11.612;2023-05-28T09:38:41;3.40;;;2.97;;
22794;SDS011;11564;50.920;11.612;2023-05-28T09:41:20;5.27;;;3.00;;
22794;SDS011;11564;50.920;11.612;2023-05-28T09:44:00;3.40;;;2.53;;
22794;SDS011;11564;50.920;11.612;2023-05-28T09:46:27;7.63;;;3.17;;
22794;SDS011;11564;50.920;11.612;2023-05-28T09:48:53;5.80;;;2.80;;
22794;SDS011;11564;50.920;11.612;2023-05-28T09:51:19;5.40;;;2.70;;
22794;SDS011;11564;50.920;11.612;2023-05-28T09:53:47;6.53;;;2.90;;
22794;SDS011;11564;50.920;11.612;2023-05-28T09:56:18;3.63;;;3.00;;
22794;SDS011;11564;50.920;11.612;2023-05-28T09:58:45;5.00;;;3.00;;
22794;SDS011;11564;50.920;11.612;2023-05-28T10:01:16;5.63;;;2.60;;
22794;SDS011;11564;50.920;11.612;2023-05-28T10:04:09;9.47;;;2.97;;
22794;SDS011;11564;50.920;11.612;2023-05-28T10:06:34;5.33;;;2.73;;
22794;SDS011;11564;50.920;11.612;2023-05-28T10:09:03;10.10;;;3.30;;
22794;SDS011;11564;50.920;11.612;2023-05-28T10:11:30;5.13;;;2.90;;
22794;SDS011;11564;50.920;11.612;2023-05-28T10:14:01;9.00;;;3.20;;
22794;SDS011;11564;50.920;11.612;2023-05-28T10:16:28;5.70;;;2.60;;
22794;SDS011;11564;50.920;11.612;2023-05-28T10:18:54;4.60;;;3.13;;
22794;SDS011;11564;50.920;11.612;2023-05-28T10:21:21;4.80;;;3.37;;
22794;SDS011;11564;50.920;11.612;2023-05-28T10:23:48;7.63;;;3.63;;
22794;SDS011;11564;50.920;11.612;2023-05-28T10:26:15;6.10;;;3.60;;
22794;SDS011;11564;50.920;11.612;2023-05-28T10:28:41;5.43;;;3.00;;
22794;SDS011;11564;50.920;11.612;2023-05-28T10:31:07;7.70;;;3.47;;
22794;SDS011;11564;50.920;11.612;2023-05-28T10:33:41;5.93;;;3.47;;
22794;SDS011;11564;50.920;11.612;2023-05-28T10:36:11;5.53;;;3.00;;
22794;SDS011;11564;50.920;11.612;2023-05-28T10:38:42;6.90;;;2.83;;
22794;SDS011;11564;50.920;11.612;2023-05-28T10:41:21;7.23;;;3.20;;
22794;SDS011;11564;50.920;11.612;2023-05-28T10:43:48;17.87;;;3.27;;
22794;SDS011;11564;50.920;11.612;2023-05-28T10:46:15;6.63;;;3.10;;
22794;SDS011;11564;50.920;11.612;2023-05-28T10:49:04;5.93;;;3.07;;
22794;SDS011;11564;50.920;11.612;2023-05-28T10:51:50;9.93;;;2.83;;
22794;SDS011;11564;50.920;11.612;2023-05-28T10:59:58;10.73;;;3.40;;
22794;SDS011;11564;50.920;11.612;2023-05-28T11:02:25;6.17;;;3.10;;
22794;SDS011;11564;50.920;11.612;2023-05-28T11:04:58;3.50;;;2.53;;
22794;SDS011;11564;50.920;11.612;2023-05-28T11:07:43;6.53;;;2.90;;
22794;SDS011;11564;50.920;11.612;2023-05-28T11:10:10;5.60;;;2.97;;
22794;SDS011;11564;50.920;11.612;2023-05-28T11:12:38;4.83;;;2.70;;
22794;SDS011;11564;50.920;11.612;2023-05-28T11:15:06;7.27;;;3.40;;
22794;SDS011;11564;50.920;11.612;2023-05-28T11:17:36;5.90;;;3.30;;
22794;SDS011;11564;50.920;11.612;2023-05-28T11:20:22;5.10;;;2.87;;
22794;SDS011;11564;50.920;11.612;2023-05-28T11:22:51;4.20;;;3.10;;
22794;SDS011;11564;50.920;11.612;2023-05-28T11:25:17;5.97;;;3.10;;
22794;SDS011;11564;50.920;11.612;2023-05-28T11:27:46;7.30;;;3.13;;
22794;SDS011;11564;50.920;11.612;2023-05-28T11:30:12;4.97;;;2.83;;
22794;SDS011;11564;50.920;11.612;2023-05-28T11:32:40;6.87;;;3.17;;
22794;SDS011;11564;50.920;11.612;2023-05-28T11:35:06;8.47;;;3.70;;
22794;SDS011;11564;50.920;11.612;2023-05-28T11:37:36;7.37;;;3.87;;
22794;SDS011;11564;50.920;11.612;2023-05-28T11:40:04;7.10;;;3.00;;
22794;SDS011;11564;50.920;11.612;2023-05-28T11:42:34;4.13;;;3.10;;
22794;SDS011;11564;50.920;11.612;2023-05-28T11:45:00;7.60;;;3.27;;
22794;SDS011;11564;50.920;11.612;2023-05-28T11:47:26;7.17;;;3.13;;
22794;SDS011;11564;50.920;11.612;2023-05-28T11:49:51;5.30;;;3.13;;
22794;SDS011;11564;50.920;11.612;2023-05-28T11:52:21;8.30;;;3.17;;
22794;SDS011;11564;50.920;11.612;2023-05-28T11:54:56;4.97;;;3.13;;
22794;SDS011;11564;50.920;11.612;2023-05-28T11:57:26;4.13;;;2.60;;
22794;SDS011;11564;50.920;11.612;2023-05-28T12:02:48;6.63;;;3.30;;
22794;SDS011;11564;50.920;11.612;2023-05-28T12:05:17;7.30;;;3.00;;
22794;SDS011;11564;50.920;11.612;2023-05-28T12:07:47;4.93;;;3.00;;
22794;SDS011;11564;50.920;11.612;2023-05-28T12:10:16;6.73;;;3.77;;
22794;SDS011;11564;50.920;11.612;2023-05-28T12:12:50;5.63;;;3.30;;
22794;SDS011;11564;50.920;11.612;2023-05-28T12:15:17;9.43;;;3.27;;
22794;SDS011;11564;50.920;11.612;2023-05-28T12:17:51;7.27;;;2.80;;
22794;SDS011;11564;50.920;11.612;2023-05-28T12:22:43;8.00;;;3.20;;
22794;SDS011;11564;50.920;11.612;2023-05-28T12:25:10;6.77;;;3.23;;
22794;SDS011;11564;50.920;11.612;2023-05-28T12:27:36;3.00;;;2.47;;
22794;SDS011;11564;50.920;11.612;2023-05-28T12:30:02;6.33;;;2.80;;
22794;SDS011;11564;50.920;11.612;2023-05-28T12:32:29;5.30;;;3.47;;
22794;SDS011;11564;50.920;11.612;2023-05-28T12:34:55;10.03;;;3.20;;
22794;SDS011;11564;50.920;11.612;2023-05-28T12:37:23;3.93;;;2.90;;
22794;SDS011;11564;50.920;11.612;2023-05-28T12:39:49;4.90;;;3.20;;
22794;SDS011;11564;50.920;11.612;2023-05-28T12:42:15;3.27;;;2.70;;
22794;SDS011;11564;50.920;11.612;2023-05-28T12:44:41;6.50;;;3.80;;
22794;SDS011;11564;50.920;11.612;2023-05-28T12:47:08;8.40;;;3.30;;
22794;SDS011;11564;50.920;11.612;2023-05-28T12:49:34;8.53;;;3.60;;
22794;SDS011;11564;50.920;11.612;2023-05-28T12:52:00;4.63;;;3.20;;
22794;SDS011;11564;50.920;11.612;2023-05-28T12:54:25;6.70;;;2.87;;
22794;SDS011;11564;50.920;11.612;2023-05-28T12:56:51;6.40;;;3.20;;
22794;SDS011;11564;50.920;11.612;2023-05-28T12:59:20;5.37;;;3.27;;
22794;SDS011;11564;50.920;11.612;2023-05-28T13:01:50;3.40;;;2.70;;
22794;SDS011;11564;50.920;11.612;2023-05-28T13:04:16;3.97;;;3.00;;
22794;SDS011;11564;50.920;11.612;2023-05-28T13:06:42;3.30;;;3.00;;
22794;SDS011;11564;50.920;11.612;2023-05-28T13:09:09;8.90;;;3.27;;
22794;SDS011;11564;50.920;11.612;2023-05-28T13:11:37;4.03;;;3.10;;
22794;SDS011;11564;50.920;11.612;2023-05-28T13:14:04;5.50;;;2.57;;
22794;SDS011;11564;50.920;11.612;2023-05-28T13:16:30;4.33;;;2.90;;
22794;SDS011;11564;50.920;11.612;2023-05-28T13:18:56;8.00;;;2.90;;
22794;SDS011;11564;50.920;11.612;2023-05-28T13:21:22;5.50;;;2.27;;
22794;SDS011;11564;50.920;11.612;2023-05-28T13:23:47;4.60;;;2.80;;
22794;SDS011;11564;50.920;11.612;2023-05-28T13:26:13;3.07;;;2.53;;
22794;SDS011;11564;50.920;11.612;2023-05-28T13:28:39;3.37;;;2.50;;
22794;SDS011;11564;50.920;11.612;2023-05-28T13:31:05;2.97;;;2.50;;
22794;SDS011;11564;50.920;11.612;2023-05-28T13:33:31;2.80;;;2.40;;
22794;SDS011;11564;50.920;11.612;2023-05-28T13:35:56;3.40;;;2.67;;
22794;SDS011;11564;50.920;11.612;2023-05-28T13:38:22;3.00;;;2.30;;
22794;SDS011;11564;50.920;11.612;2023-05-28T13:40:47;3.13;;;2.23;;
22794;SDS011;11564;50.920;11.612;2023-05-28T13:43:13;2.25;;;1.90;;
22794;SDS011;11564;50.920;11.612;2023-05-28T13:45:40;5.78;;;2.30;;
22794;SDS011;11564;50.920;11.612;2023-05-28T13:48:06;1.77;;;1.67;;
22794;SDS011;11564;50.920;11.612;2023-05-28T13:50:32;1.80;;;1.58;;
22794;SDS011;11564;50.920;11.612;2023-05-28T13:52:58;2.95;;;1.60;;
22794;SDS011;11564;50.920;11.612;2023-05-28T13:55:24;2.03;;;1.50;;
22794;SDS011;11564;50.920;11.612;2023-05-28T13:57:51;3.40;;;1.73;;
22794;SDS011;11564;50.920;11.612;2023-05-28T14:00:17;1.90;;;1.63;;
22794;SDS011;11564;50.920;11.612;2023-05-28T14:02:43;2.65;;;1.67;;
22794;SDS011;11564;50.920;11.612;2023-05-28T14:05:09;1.80;;;1.70;;
22794;SDS011;11564;50.920;11.612;2023-05-28T14:07:35;1.50;;;1.40;;
22794;SDS011;11564;50.920;11.612;2023-05-28T14:10:02;2.80;;;1.88;;
22794;SDS011;11564;50.920;11.612;2023-05-28T14:12:28;1.80;;;1.70;;
22794;SDS011;11564;50.920;11.612;2023-05-28T14:14:53;2.00;;;1.67;;
22794;SDS011;11564;50.920;11.612;2023-05-28T14:17:19;1.95;;;1.50;;
22794;SDS011;11564;50.920;11.612;2023-05-28T14:19:44;3.17;;;1.65;;
22794;SDS011;11564;50.920;11.612;2023-05-28T14:22:10;1.67;;;1.58;;
22794;SDS011;11564;50.920;11.612;2023-05-28T14:24:36;4.60;;;1.60;;
22794;SDS011;11564;50.920;11.612;2023-05-28T14:27:03;1.23;;;1.13;;
22794;SDS011;11564;50.920;11.612;2023-05-28T14:29:29;1.63;;;1.50;;
22794;SDS011;11564;50.920;11.612;2023-05-28T14:31:55;6.53;;;1.60;;
22794;SDS011;11564;50.920;11.612;2023-05-28T14:34:21;2.83;;;1.40;;
22794;SDS011;11564;50.920;11.612;2023-05-28T14:36:46;2.30;;;1.60;;
22794;SDS011;11564;50.920;11.612;2023-05-28T14:39:12;2.97;;;1.45;;
22794;SDS011;11564;50.920;11.612;2023-05-28T14:41:38;3.50;;;1.33;;
22794;SDS011;11564;50.920;11.612;2023-05-28T14:44:04;3.10;;;1.80;;